createdAt,value
2022-10-01T00:02:36.817Z,96.40
2022-10-01T00:06:20.164Z,96.40
2022-10-01T00:10:01.927Z,96.50
2022-10-01T00:13:43.752Z,96.50
2022-10-01T00:17:25.498Z,96.70
2022-10-01T00:21:11.664Z,96.90
2022-10-01T00:24:53.394Z,96.90
2022-10-01T00:28:35.100Z,96.80
2022-10-01T00:32:17.082Z,97.00
2022-10-01T00:35:58.843Z,96.80
2022-10-01T00:39:40.644Z,96.80
2022-10-01T00:43:27.364Z,97.10
2022-10-01T00:47:31.713Z,96.80
2022-10-01T00:51:14.155Z,96.90
2022-10-01T00:55:01.375Z,96.90
2022-10-01T00:58:43.914Z,96.80
2022-10-01T01:02:25.802Z,97.10
2022-10-01T01:06:09.803Z,97.00
2022-10-01T01:09:53.385Z,96.90
2022-10-01T01:13:35.136Z,96.90
2022-10-01T01:17:25.350Z,97.20
2022-10-01T01:21:11.987Z,97.00
2022-10-01T01:25:02.829Z,97.00
2022-10-01T01:28:46.983Z,97.00
2022-10-01T01:32:37.138Z,96.90
2022-10-01T01:36:20.590Z,96.90
2022-10-01T01:40:03.509Z,97.00
2022-10-01T01:43:46.340Z,97.00
2022-10-01T01:47:33.430Z,97.00
2022-10-01T01:51:20.684Z,96.90
2022-10-01T01:55:07.515Z,97.00
2022-10-01T01:58:49.427Z,97.00
2022-10-01T02:02:33.448Z,97.00
2022-10-01T02:06:31.368Z,97.00
2022-10-01T02:10:22.818Z,97.00
2022-10-01T02:14:09.798Z,97.10
2022-10-01T02:17:52.014Z,96.90
2022-10-01T02:21:42.937Z,96.90
2022-10-01T02:25:27.136Z,96.90
2022-10-01T02:29:13.239Z,96.90
2022-10-01T02:32:56.818Z,96.90
2022-10-01T02:36:41.287Z,96.90
2022-10-01T02:40:26.308Z,96.90
2022-10-01T02:44:21.320Z,97.00
2022-10-01T02:48:07.153Z,96.90
2022-10-01T02:51:59.489Z,97.00
2022-10-01T02:55:42.104Z,97.00
2022-10-01T02:59:23.906Z,96.90
2022-10-01T03:03:05.773Z,97.00
2022-10-01T03:06:47.579Z,96.90
2022-10-01T03:10:29.341Z,97.00
2022-10-01T03:14:11.196Z,97.20
2022-10-01T03:17:53.537Z,96.90
2022-10-01T03:21:35.651Z,96.90
2022-10-01T03:25:17.783Z,96.90
2022-10-01T03:28:59.559Z,96.90
2022-10-01T03:32:44.412Z,96.90
2022-10-01T03:36:29.381Z,96.90
2022-10-01T03:40:11.117Z,96.90
2022-10-01T03:43:56.022Z,97.20
2022-10-01T03:47:40.162Z,96.90
2022-10-01T03:51:21.910Z,97.00
2022-10-01T03:55:03.800Z,97.00
2022-10-01T03:58:45.536Z,97.20
2022-10-01T04:02:27.854Z,97.00
2022-10-01T04:06:10.423Z,96.90
2022-10-01T04:09:52.143Z,96.90
2022-10-01T04:13:34.644Z,96.90
2022-10-01T04:17:16.369Z,96.90
2022-10-01T04:20:58.245Z,96.90
2022-10-01T04:24:39.986Z,96.90
2022-10-01T04:28:21.793Z,97.10
2022-10-01T04:32:03.748Z,97.10
2022-10-01T04:35:46.014Z,97.20
2022-10-01T04:39:27.748Z,97.10
2022-10-01T04:43:11.188Z,97.10
2022-10-01T04:46:52.963Z,97.20
2022-10-01T04:50:34.753Z,97.10
2022-10-01T04:54:16.496Z,97.10
2022-10-01T04:57:58.208Z,97.10
2022-10-01T05:01:41.985Z,97.10
2022-10-01T05:05:24.520Z,97.10
2022-10-01T05:09:06.293Z,97.10
2022-10-01T05:12:48.584Z,97.10
2022-10-01T05:16:30.442Z,97.10
2022-10-01T05:20:20.121Z,97.10
2022-10-01T05:24:01.927Z,97.40
2022-10-01T05:27:43.763Z,97.10
2022-10-01T05:31:25.852Z,97.00
2022-10-01T05:35:08.338Z,97.00
2022-10-01T05:38:52.403Z,97.00
2022-10-01T05:42:34.139Z,97.00
2022-10-01T05:46:16.004Z,97.10
2022-10-01T05:49:57.751Z,97.00
2022-10-01T05:53:39.560Z,97.00
2022-10-01T05:57:21.277Z,97.00
2022-10-01T06:01:04.153Z,97.00
2022-10-01T06:04:45.876Z,97.10
2022-10-01T06:08:28.711Z,97.10
2022-10-01T06:12:10.512Z,97.10
2022-10-01T06:15:52.848Z,97.10
2022-10-01T06:19:34.587Z,97.10
2022-10-01T06:23:16.316Z,97.10
2022-10-01T06:26:58.244Z,97.00
2022-10-01T06:30:40.239Z,97.10
2022-10-01T06:34:22.068Z,97.00
2022-10-01T06:38:03.848Z,97.00
2022-10-01T06:41:47.277Z,97.00
2022-10-01T06:45:30.150Z,97.00
2022-10-01T06:49:12.123Z,97.00
2022-10-01T06:52:54.188Z,97.00
2022-10-01T06:56:36.551Z,97.00
2022-10-01T07:00:18.368Z,97.00
2022-10-01T07:04:00.150Z,97.00
2022-10-01T07:07:41.925Z,97.10
2022-10-01T07:11:24.064Z,97.00
2022-10-01T07:15:06.649Z,97.00
2022-10-01T07:18:48.378Z,97.00
2022-10-01T07:22:30.091Z,97.10
2022-10-01T07:26:11.859Z,97.10
2022-10-01T07:29:53.679Z,97.10
2022-10-01T07:33:35.427Z,97.10
2022-10-01T07:37:17.673Z,97.10
2022-10-01T07:40:59.756Z,97.10
2022-10-01T07:44:41.478Z,97.10
2022-10-01T07:48:23.386Z,97.10
2022-10-01T07:52:09.693Z,97.10
2022-10-01T07:55:54.168Z,97.00
2022-10-01T07:59:35.905Z,97.00
2022-10-01T08:03:17.627Z,97.00
2022-10-01T08:06:59.320Z,97.00
2022-10-01T08:10:42.595Z,96.90
2022-10-01T08:14:24.387Z,96.90
2022-10-01T08:18:06.153Z,96.90
2022-10-01T08:21:47.879Z,96.90
2022-10-01T08:25:30.039Z,96.90
2022-10-01T08:29:16.847Z,96.90
2022-10-01T08:33:00.312Z,96.90
2022-10-01T08:36:42.040Z,96.80
2022-10-01T08:40:23.971Z,96.80
2022-10-01T08:44:06.425Z,96.80
2022-10-01T08:47:52.635Z,96.70
2022-10-01T08:51:48.431Z,96.60
2022-10-01T08:55:36.479Z,96.60
2022-10-01T08:59:25.286Z,96.50
2022-10-01T09:03:10.941Z,96.50
2022-10-01T09:06:57.959Z,96.30
2022-10-01T09:11:03.758Z,96.20
2022-10-01T09:14:56.412Z,96.20
2022-10-01T09:18:56.251Z,96.10
2022-10-01T09:22:43.637Z,95.90
2022-10-01T09:26:25.914Z,95.90
2022-10-01T09:30:07.912Z,95.90
2022-10-01T09:33:51.941Z,95.80
2022-10-01T09:37:40.783Z,95.70
2022-10-01T09:41:23.649Z,95.20
2022-10-01T09:45:06.257Z,95.40
2022-10-01T09:48:50.898Z,95.20
2022-10-01T09:52:34.613Z,95.60
2022-10-01T09:56:23.777Z,95.40
2022-10-01T10:00:07.761Z,95.30
2022-10-01T10:03:57.136Z,95.00
2022-10-01T10:07:42.298Z,95.10
2022-10-01T10:11:25.565Z,95.20
2022-10-01T10:15:09.428Z,95.00
2022-10-01T10:18:52.484Z,95.10
2022-10-01T10:22:34.226Z,94.30
2022-10-01T10:26:19.629Z,94.20
2022-10-01T10:30:17.711Z,94.70
2022-10-01T10:33:59.443Z,94.70
2022-10-01T10:37:49.749Z,94.20
2022-10-01T10:41:32.675Z,93.70
2022-10-01T10:45:20.569Z,93.30
2022-10-01T10:49:05.308Z,94.10
2022-10-01T10:52:47.036Z,94.00
2022-10-01T10:56:28.834Z,93.70
2022-10-01T11:00:19.773Z,93.50
2022-10-01T11:04:01.652Z,90.60
2022-10-01T11:07:44.578Z,91.00
2022-10-01T11:11:27.790Z,89.40
2022-10-01T11:15:11.107Z,82.10
2022-10-01T11:19:05.664Z,78.00
2022-10-01T11:23:04.519Z,79.60
2022-10-01T11:26:53.513Z,83.30
2022-10-01T11:30:41.958Z,79.90
2022-10-01T11:34:26.691Z,78.40
2022-10-01T11:38:27.219Z,79.00
2022-10-01T11:42:17.668Z,79.30
2022-10-01T11:46:03.522Z,78.20
2022-10-01T11:49:57.787Z,74.60
2022-10-01T11:53:59.767Z,76.20
2022-10-01T11:58:00.323Z,75.40
2022-10-01T12:02:03.072Z,77.20
2022-10-01T12:05:45.563Z,78.00
2022-10-01T12:09:49.174Z,74.70
2022-10-01T12:13:36.736Z,79.30
2022-10-01T12:17:32.609Z,75.90
2022-10-01T12:21:19.344Z,71.90
2022-10-01T12:25:01.266Z,66.40
2022-10-01T12:28:52.113Z,68.80
2022-10-01T12:32:54.283Z,69.00
2022-10-01T12:36:43.034Z,78.10
2022-10-01T12:40:30.971Z,77.50
2022-10-01T12:44:13.731Z,77.40
2022-10-01T12:48:01.369Z,72.00
2022-10-01T12:51:44.748Z,67.00
2022-10-01T12:55:45.089Z,69.60
2022-10-01T12:59:30.098Z,67.80
2022-10-01T13:03:24.387Z,66.50
2022-10-01T13:07:23.978Z,66.90
2022-10-01T13:11:05.822Z,67.70
2022-10-01T13:14:47.991Z,65.90
2022-10-01T13:18:41.823Z,60.00
2022-10-01T13:22:32.683Z,65.10
2022-10-01T13:26:26.717Z,62.50
2022-10-01T13:30:24.734Z,70.40
2022-10-01T13:34:42.092Z,77.90
2022-10-01T13:38:31.167Z,64.00
2022-10-01T13:42:31.777Z,66.30
2022-10-01T13:46:13.579Z,69.00
2022-10-01T13:50:01.128Z,66.80
2022-10-01T13:53:42.908Z,69.30
2022-10-01T13:57:27.407Z,66.30
2022-10-01T14:01:23.643Z,67.50
2022-10-01T14:05:15.600Z,65.60
2022-10-01T14:09:04.621Z,68.60
2022-10-01T14:13:05.179Z,65.00
2022-10-01T14:16:47.552Z,69.00
2022-10-01T14:20:32.881Z,66.40
2022-10-01T14:24:40.316Z,64.70
2022-10-01T14:28:22.108Z,65.60
2022-10-01T14:32:18.542Z,60.10
2022-10-01T14:36:09.152Z,57.70
2022-10-01T14:40:01.396Z,56.80
2022-10-01T14:43:43.131Z,54.40
2022-10-01T14:47:25.679Z,56.80
2022-10-01T14:51:20.644Z,56.50
2022-10-01T14:55:06.905Z,55.20
2022-10-01T14:58:54.739Z,58.20
2022-10-01T15:02:44.003Z,59.10
2022-10-01T15:06:30.159Z,60.10
2022-10-01T15:10:15.957Z,62.40
2022-10-01T15:14:02.583Z,62.70
2022-10-01T15:17:44.370Z,72.60
2022-10-01T15:21:29.159Z,70.40
2022-10-01T15:25:16.390Z,65.90
2022-10-01T15:29:01.900Z,66.50
2022-10-01T15:32:44.843Z,69.60
2022-10-01T15:36:27.058Z,66.30
2022-10-01T15:40:21.939Z,68.70
2022-10-01T15:44:05.065Z,66.40
2022-10-01T15:47:56.960Z,67.40
2022-10-01T15:51:44.475Z,67.70
2022-10-01T15:55:26.232Z,67.40
2022-10-01T15:59:15.321Z,68.30
2022-10-01T16:02:57.590Z,69.80
2022-10-01T16:06:39.289Z,71.00
2022-10-01T16:10:30.161Z,71.40
2022-10-01T16:14:35.251Z,72.50
2022-10-01T16:18:21.539Z,73.10
2022-10-01T16:22:20.474Z,74.20
2022-10-01T16:26:03.613Z,73.50
2022-10-01T16:29:53.639Z,73.80
2022-10-01T16:33:35.369Z,74.10
2022-10-01T16:37:17.095Z,74.50
2022-10-01T16:40:58.844Z,74.90
2022-10-01T16:44:40.777Z,75.80
2022-10-01T16:48:22.478Z,73.70
2022-10-01T16:52:04.536Z,75.40
2022-10-01T16:55:46.559Z,74.40
2022-10-01T16:59:28.346Z,74.80
2022-10-01T17:03:14.114Z,74.30
2022-10-01T17:06:55.910Z,74.90
2022-10-01T17:10:48.207Z,75.20
2022-10-01T17:14:30.075Z,75.70
2022-10-01T17:18:13.783Z,75.00
2022-10-01T17:21:55.941Z,74.90
2022-10-01T17:26:46.497Z,73.90
2022-10-01T17:30:32.820Z,68.10
2022-10-01T17:34:14.701Z,68.40
2022-10-01T17:37:57.188Z,69.30
2022-10-01T17:41:38.988Z,69.50
2022-10-01T17:45:20.937Z,70.00
2022-10-01T17:49:02.803Z,70.10
2022-10-01T17:52:47.327Z,70.30
2022-10-01T17:56:32.962Z,70.50
2022-10-01T18:00:15.149Z,71.40
2022-10-01T18:03:57.601Z,71.90
2022-10-01T18:07:40.083Z,71.70
2022-10-01T18:11:22.620Z,72.20
2022-10-01T18:15:04.983Z,72.50
2022-10-01T18:22:49.817Z,73.10
2022-10-01T18:26:32.359Z,73.10
2022-10-01T18:30:14.394Z,73.20
2022-10-01T18:34:01.191Z,73.40
2022-10-01T18:37:46.748Z,73.40
2022-10-01T18:41:39.739Z,75.30
2022-10-01T18:45:59.777Z,74.30
2022-10-01T18:50:05.417Z,75.30
2022-10-01T18:54:13.467Z,74.80
2022-10-01T18:58:19.236Z,75.00
2022-10-01T19:02:15.288Z,75.20
2022-10-01T19:05:59.877Z,75.20
2022-10-01T19:10:10.618Z,75.50
2022-10-01T19:14:20.585Z,76.00
2022-10-01T19:18:38.822Z,76.10
2022-10-01T19:22:44.359Z,76.70
2022-10-01T19:26:34.013Z,76.90
2022-10-01T19:30:19.243Z,77.10
2022-10-01T19:34:15.424Z,77.20
2022-10-01T19:38:02.992Z,77.40
2022-10-01T19:41:53.329Z,77.70
2022-10-01T19:45:51.261Z,77.80
2022-10-01T19:49:37.223Z,78.30
2022-10-01T19:53:31.235Z,78.50
2022-10-01T19:57:13.387Z,78.60
2022-10-01T20:00:57.217Z,79.00
2022-10-01T20:05:06.672Z,79.60
2022-10-01T20:09:12.963Z,79.50
2022-10-01T20:13:36.307Z,79.90
2022-10-01T20:17:40.829Z,80.10
2022-10-01T20:21:55.866Z,80.30
2022-10-01T20:26:02.094Z,80.90
2022-10-01T20:30:04.783Z,81.20
2022-10-01T20:34:10.640Z,81.80
2022-10-01T20:38:00.411Z,81.80
2022-10-01T20:41:49.344Z,82.40
2022-10-01T20:45:35.445Z,82.50
2022-10-01T20:49:39.310Z,83.00
2022-10-01T20:53:31.986Z,83.00
2022-10-01T20:57:30.720Z,83.40
2022-10-01T21:01:24.262Z,83.30
2022-10-01T21:05:39.690Z,83.40
2022-10-01T21:09:32.768Z,83.60
2022-10-01T21:13:31.859Z,83.90
2022-10-01T21:17:32.170Z,84.10
2022-10-01T21:21:41.147Z,84.30
2022-10-01T21:25:32.288Z,84.50
2022-10-01T21:29:38.749Z,84.60
2022-10-01T21:33:33.929Z,84.70
2022-10-01T21:37:29.831Z,84.70
2022-10-01T21:41:39.796Z,85.10
2022-10-01T21:45:33.050Z,85.60
2022-10-01T21:49:14.918Z,86.00
2022-10-01T21:52:56.839Z,86.40
2022-10-01T21:57:10.306Z,86.80
2022-10-01T22:01:08.592Z,86.80
2022-10-01T22:05:00.696Z,87.10
2022-10-01T22:09:12.615Z,87.60
2022-10-01T22:12:58.680Z,88.30
2022-10-01T22:16:57.658Z,88.00
2022-10-01T22:20:42.703Z,88.30
2022-10-01T22:24:36.035Z,88.70
2022-10-01T22:28:22.789Z,88.50
2022-10-01T22:32:05.812Z,88.80
2022-10-01T22:36:09.771Z,88.80
2022-10-01T22:40:02.011Z,88.80
2022-10-01T22:43:45.765Z,89.00
2022-10-01T22:47:46.996Z,89.20
2022-10-01T22:52:02.071Z,88.90
2022-10-01T22:55:44.152Z,89.00
2022-10-01T23:00:03.696Z,89.60
2022-10-01T23:04:04.384Z,89.40
2022-10-01T23:08:01.639Z,90.00
2022-10-01T23:12:08.512Z,90.00
2022-10-01T23:15:58.802Z,90.10
2022-10-01T23:20:02.110Z,90.10
2022-10-01T23:23:54.357Z,90.10
2022-10-01T23:28:07.708Z,90.20
2022-10-01T23:32:06.511Z,90.10
2022-10-01T23:35:52.412Z,90.30
2022-10-01T23:39:49.558Z,90.50
2022-10-01T23:43:37.589Z,90.50
2022-10-01T23:47:32.646Z,90.60
2022-10-01T23:51:21.535Z,90.60
2022-10-01T23:55:38.013Z,90.60
2022-10-01T23:59:19.752Z,90.60
